sensor_id;sensor_type;location;lat;lon;timestamp;pressure;altitude;pressure_sealevel;temperature;humidity
78625;BME280;67944;0.000;0.000;2023-12-20T00:01:39;100756.16;;;19.78;34.22
78625;BME280;67944;0.000;0.000;2023-12-20T00:04:06;100753.53;;;19.78;33.83
78625;BME280;67944;0.000;0.000;2023-12-20T00:06:31;100754.34;;;19.78;34.19
78625;BME280;67944;0.000;0.000;2023-12-20T00:08:57;100742.94;;;19.78;33.51
78625;BME280;67944;0.000;0.000;2023-12-20T00:11:23;100744.78;;;19.77;33.93
78625;BME280;67944;0.000;0.000;2023-12-20T00:13:49;100742.13;;;19.77;33.96
78625;BME280;67944;0.000;0.000;2023-12-20T00:16:14;100751.03;;;19.76;34.03
78625;BME280;67944;0.000;0.000;2023-12-20T00:18:40;100746.59;;;19.77;33.77
78625;BME280;67944;0.000;0.000;2023-12-20T00:21:05;100744.09;;;19.75;34.03
78625;BME280;67944;0.000;0.000;2023-12-20T00:23:31;100738.81;;;19.75;33.57
78625;BME280;67944;0.000;0.000;2023-12-20T00:25:57;100733.53;;;19.75;33.68
78625;BME280;67944;0.000;0.000;2023-12-20T00:28:23;100736.34;;;19.74;34.23
78625;BME280;67944;0.000;0.000;2023-12-20T00:30:48;100736.34;;;19.74;33.59
78625;BME280;67944;0.000;0.000;2023-12-20T00:33:14;100732.06;;;19.73;34.17
78625;BME280;67944;0.000;0.000;2023-12-20T00:35:39;100729.41;;;19.73;34.13
78625;BME280;67944;0.000;0.000;2023-12-20T00:38:05;100724.94;;;19.73;33.73
78625;BME280;67944;0.000;0.000;2023-12-20T00:40:32;100729.41;;;19.73;33.61
78625;BME280;67944;0.000;0.000;2023-12-20T00:42:58;100725.94;;;19.72;34.25
78625;BME280;67944;0.000;0.000;2023-12-20T00:45:23;100717.19;;;19.72;34.04
78625;BME280;67944;0.000;0.000;2023-12-20T00:47:49;100727.59;;;19.73;34.25
78625;BME280;67944;0.000;0.000;2023-12-20T00:50:14;100719.84;;;19.72;34.52
78625;BME280;67944;0.000;0.000;2023-12-20T00:52:40;100716.38;;;19.71;33.61
78625;BME280;67944;0.000;0.000;2023-12-20T00:55:05;100716.38;;;19.71;34.03
78625;BME280;67944;0.000;0.000;2023-12-20T00:57:31;100707.63;;;19.71;34.00
78625;BME280;67944;0.000;0.000;2023-12-20T00:59:56;100717.34;;;19.70;34.39
78625;BME280;67944;0.000;0.000;2023-12-20T01:02:22;100720.00;;;19.70;34.05
78625;BME280;67944;0.000;0.000;2023-12-20T01:04:47;100702.69;;;19.68;34.06
78625;BME280;67944;0.000;0.000;2023-12-20T01:07:13;100712.28;;;19.69;34.45
78625;BME280;67944;0.000;0.000;2023-12-20T01:09:38;100716.72;;;19.68;34.46
78625;BME280;67944;0.000;0.000;2023-12-20T01:12:04;100717.72;;;19.67;34.60
78625;BME280;67944;0.000;0.000;2023-12-20T01:14:29;100710.63;;;19.68;33.99
78625;BME280;67944;0.000;0.000;2023-12-20T01:16:55;100703.69;;;19.67;34.16
78625;BME280;67944;0.000;0.000;2023-12-20T01:19:20;100708.97;;;19.67;34.48
78625;BME280;67944;0.000;0.000;2023-12-20T01:21:46;100704.50;;;19.67;34.55
78625;BME280;67944;0.000;0.000;2023-12-20T01:24:12;100698.41;;;19.67;33.75
78625;BME280;67944;0.000;0.000;2023-12-20T01:26:37;100698.56;;;19.65;33.71
78625;BME280;67944;0.000;0.000;2023-12-20T01:29:03;100695.91;;;19.65;33.92
78625;BME280;67944;0.000;0.000;2023-12-20T01:31:28;100695.09;;;19.65;34.34
78625;BME280;67944;0.000;0.000;2023-12-20T01:33:54;100695.09;;;19.65;33.91
78625;BME280;67944;0.000;0.000;2023-12-20T01:36:19;100704.84;;;19.64;33.88
78625;BME280;67944;0.000;0.000;2023-12-20T01:38:45;100710.13;;;19.64;34.53
78625;BME280;67944;0.000;0.000;2023-12-20T01:41:10;100712.75;;;19.64;34.25
78625;BME280;67944;0.000;0.000;2023-12-20T01:43:36;100709.28;;;19.64;34.62
78625;BME280;67944;0.000;0.000;2023-12-20T01:46:01;100714.59;;;19.64;34.22
78625;BME280;67944;0.000;0.000;2023-12-20T01:48:29;100709.28;;;19.64;34.01
78625;BME280;67944;0.000;0.000;2023-12-20T01:50:55;100710.28;;;19.63;34.42
78625;BME280;67944;0.000;0.000;2023-12-20T01:53:23;100702.38;;;19.63;33.86
78625;BME280;67944;0.000;0.000;2023-12-20T01:55:50;100710.44;;;19.61;34.14
78625;BME280;67944;0.000;0.000;2023-12-20T01:58:18;100701.53;;;19.62;34.80
78625;BME280;67944;0.000;0.000;2023-12-20T02:00:44;100693.78;;;19.61;34.76
78625;BME280;67944;0.000;0.000;2023-12-20T02:03:11;100698.22;;;19.60;34.64
78625;BME280;67944;0.000;0.000;2023-12-20T02:05:37;100703.34;;;19.62;34.23
78625;BME280;67944;0.000;0.000;2023-12-20T02:08:03;100715.75;;;19.61;34.82
78625;BME280;67944;0.000;0.000;2023-12-20T02:10:29;100710.63;;;19.60;33.99
78625;BME280;67944;0.000;0.000;2023-12-20T02:12:55;100711.44;;;19.60;34.67
78625;BME280;67944;0.000;0.000;2023-12-20T02:15:21;100707.97;;;19.60;33.99
78625;BME280;67944;0.000;0.000;2023-12-20T02:17:47;100710.63;;;19.60;34.53
78625;BME280;67944;0.000;0.000;2023-12-20T02:20:13;100711.59;;;19.59;34.75
78625;BME280;67944;0.000;0.000;2023-12-20T02:22:39;100701.03;;;19.59;34.39
78625;BME280;67944;0.000;0.000;2023-12-20T02:25:05;100694.94;;;19.58;34.50
78625;BME280;67944;0.000;0.000;2023-12-20T02:27:31;100701.03;;;19.59;33.89
78625;BME280;67944;0.000;0.000;2023-12-20T02:29:56;100697.56;;;19.58;34.22
78625;BME280;67944;0.000;0.000;2023-12-20T02:32:24;100705.50;;;19.58;34.41
78625;BME280;67944;0.000;0.000;2023-12-20T02:34:53;100697.75;;;19.57;34.63
78625;BME280;67944;0.000;0.000;2023-12-20T02:37:19;100705.66;;;19.57;34.75
78625;BME280;67944;0.000;0.000;2023-12-20T02:39:44;100692.47;;;19.57;34.61
78625;BME280;67944;0.000;0.000;2023-12-20T02:42:10;100684.53;;;19.57;34.09
78625;BME280;67944;0.000;0.000;2023-12-20T02:44:35;100685.53;;;19.56;34.11
78625;BME280;67944;0.000;0.000;2023-12-20T02:47:02;100697.91;;;19.55;34.92
78625;BME280;67944;0.000;0.000;2023-12-20T02:49:27;100690.81;;;19.56;34.05
78625;BME280;67944;0.000;0.000;2023-12-20T02:51:53;100679.59;;;19.54;34.68
78625;BME280;67944;0.000;0.000;2023-12-20T02:54:18;100677.75;;;19.54;35.00
78625;BME280;67944;0.000;0.000;2023-12-20T02:56:44;100690.97;;;19.54;34.15
78625;BME280;67944;0.000;0.000;2023-12-20T02:59:09;100700.72;;;19.54;34.48
78625;BME280;67944;0.000;0.000;2023-12-20T03:01:35;100699.88;;;19.53;34.09
78625;BME280;67944;0.000;0.000;2023-12-20T03:04:01;100702.69;;;19.51;34.29
78625;BME280;67944;0.000;0.000;2023-12-20T03:06:26;100692.28;;;19.50;34.88
78625;BME280;67944;0.000;0.000;2023-12-20T03:08:52;100689.81;;;19.48;34.75
78625;BME280;67944;0.000;0.000;2023-12-20T03:11:18;100689.81;;;19.48;35.02
78625;BME280;67944;0.000;0.000;2023-12-20T03:13:43;100691.44;;;19.49;34.51
78625;BME280;67944;0.000;0.000;2023-12-20T03:16:10;100689.47;;;19.51;34.36
78625;BME280;67944;0.000;0.000;2023-12-20T03:18:36;100698.41;;;19.50;35.05
78625;BME280;67944;0.000;0.000;2023-12-20T03:21:02;100711.94;;;19.56;34.68
78625;BME280;67944;0.000;0.000;2023-12-20T03:23:27;100716.91;;;19.59;34.93
78625;BME280;67944;0.000;0.000;2023-12-20T03:25:53;100711.28;;;19.62;34.70
78625;BME280;67944;0.000;0.000;2023-12-20T03:28:18;100708.31;;;19.65;34.46
78625;BME280;67944;0.000;0.000;2023-12-20T03:30:44;100707.97;;;19.68;34.47
78625;BME280;67944;0.000;0.000;2023-12-20T03:33:10;100711.06;;;19.71;34.08
78625;BME280;67944;0.000;0.000;2023-12-20T03:35:35;100708.09;;;19.74;34.54
78625;BME280;67944;0.000;0.000;2023-12-20T03:38:01;100700.66;;;19.78;34.31
78625;BME280;67944;0.000;0.000;2023-12-20T03:40:26;100704.63;;;19.82;34.09
78625;BME280;67944;0.000;0.000;2023-12-20T03:42:52;100700.66;;;19.86;34.75
78625;BME280;67944;0.000;0.000;2023-12-20T03:45:17;100696.69;;;19.90;34.20
78625;BME280;67944;0.000;0.000;2023-12-20T03:47:43;100707.72;;;19.94;34.71
78625;BME280;67944;0.000;0.000;2023-12-20T03:50:08;100710.03;;;19.97;34.75
78625;BME280;67944;0.000;0.000;2023-12-20T03:52:33;100714.81;;;20.01;34.20
78625;BME280;67944;0.000;0.000;2023-12-20T03:54:59;100709.19;;;20.04;34.20
78625;BME280;67944;0.000;0.000;2023-12-20T03:57:24;100713.16;;;20.08;34.67
78625;BME280;67944;0.000;0.000;2023-12-20T03:59:50;100712.66;;;20.13;34.10
78625;BME280;67944;0.000;0.000;2023-12-20T04:02:15;100714.09;;;20.15;33.89
78625;BME280;67944;0.000;0.000;2023-12-20T04:04:43;100718.06;;;20.19;34.29
78625;BME280;67944;0.000;0.000;2023-12-20T04:07:08;100719.38;;;20.24;34.09
78625;BME280;67944;0.000;0.000;2023-12-20T04:09:34;100719.84;;;20.27;33.86
78625;BME280;67944;0.000;0.000;2023-12-20T04:11:59;100724.63;;;20.32;34.45
78625;BME280;67944;0.000;0.000;2023-12-20T04:14:25;100726.75;;;20.36;34.24
78625;BME280;67944;0.000;0.000;2023-12-20T04:16:50;100725.44;;;20.40;34.46
78625;BME280;67944;0.000;0.000;2023-12-20T04:19:16;100733.03;;;20.43;34.53
78625;BME280;67944;0.000;0.000;2023-12-20T04:21:41;100725.41;;;20.48;34.25
78625;BME280;67944;0.000;0.000;2023-12-20T04:24:07;100733.50;;;20.47;33.73
78625;BME280;67944;0.000;0.000;2023-12-20T04:26:33;100733.22;;;20.34;34.15
78625;BME280;67944;0.000;0.000;2023-12-20T04:28:58;100731.97;;;20.13;33.94
78625;BME280;67944;0.000;0.000;2023-12-20T04:31:24;100729.41;;;19.89;34.12
78625;BME280;67944;0.000;0.000;2023-12-20T04:33:49;100735.56;;;19.65;33.78
78625;BME280;67944;0.000;0.000;2023-12-20T04:36:15;100732.56;;;19.44;34.02
78625;BME280;67944;0.000;0.000;2023-12-20T04:38:40;100744.47;;;19.24;33.87
78625;BME280;67944;0.000;0.000;2023-12-20T04:41:06;100744.78;;;19.04;34.72
78625;BME280;67944;0.000;0.000;2023-12-20T04:43:32;100745.88;;;18.86;35.12
78625;BME280;67944;0.000;0.000;2023-12-20T04:45:57;100745.84;;;18.69;35.00
78625;BME280;67944;0.000;0.000;2023-12-20T04:48:23;100755.31;;;18.54;34.59
78625;BME280;67944;0.000;0.000;2023-12-20T04:50:48;100751.31;;;18.42;35.27
78625;BME280;67944;0.000;0.000;2023-12-20T04:53:13;100750.97;;;18.37;35.11
78625;BME280;67944;0.000;0.000;2023-12-20T04:55:39;100751.97;;;18.36;35.48
78625;BME280;67944;0.000;0.000;2023-12-20T04:58:04;100748.81;;;18.40;35.53
78625;BME280;67944;0.000;0.000;2023-12-20T05:00:30;100749.69;;;18.49;35.33
78625;BME280;67944;0.000;0.000;2023-12-20T05:02:55;100754.56;;;18.62;35.43
78625;BME280;67944;0.000;0.000;2023-12-20T05:05:21;100749.66;;;18.75;35.25
78625;BME280;67944;0.000;0.000;2023-12-20T05:07:46;100762.03;;;18.91;35.24
78625;BME280;67944;0.000;0.000;2023-12-20T05:10:12;100768.34;;;19.06;34.98
78625;BME280;67944;0.000;0.000;2023-12-20T05:12:37;100767.72;;;19.20;35.67
78625;BME280;67944;0.000;0.000;2023-12-20T05:15:05;100772.34;;;19.34;35.70
78625;BME280;67944;0.000;0.000;2023-12-20T05:17:30;100776.97;;;19.48;34.91
78625;BME280;67944;0.000;0.000;2023-12-20T05:19:56;100773.03;;;19.61;35.30
78625;BME280;67944;0.000;0.000;2023-12-20T05:22:21;100763.94;;;19.71;34.89
78625;BME280;67944;0.000;0.000;2023-12-20T05:24:47;100768.72;;;19.84;35.11
78625;BME280;67944;0.000;0.000;2023-12-20T05:27:12;100766.69;;;19.94;35.42
78625;BME280;67944;0.000;0.000;2023-12-20T05:29:38;100775.28;;;20.04;35.42
78625;BME280;67944;0.000;0.000;2023-12-20T05:32:04;100783.84;;;20.14;35.29
78625;BME280;67944;0.000;0.000;2023-12-20T05:34:30;100787.31;;;20.23;35.18
78625;BME280;67944;0.000;0.000;2023-12-20T05:36:56;100795.06;;;20.33;34.98
78625;BME280;67944;0.000;0.000;2023-12-20T05:39:21;100796.03;;;20.40;34.39
78625;BME280;67944;0.000;0.000;2023-12-20T05:41:47;100803.94;;;20.48;34.82
78625;BME280;67944;0.000;0.000;2023-12-20T05:44:13;100824.28;;;20.56;34.65
78625;BME280;67944;0.000;0.000;2023-12-20T05:46:38;100825.22;;;20.63;34.34
78625;BME280;67944;0.000;0.000;2023-12-20T05:49:05;100825.38;;;20.69;34.87
78625;BME280;67944;0.000;0.000;2023-12-20T05:51:31;100831.81;;;20.75;34.78
78625;BME280;67944;0.000;0.000;2023-12-20T05:53:56;100837.38;;;20.80;34.34
78625;BME280;67944;0.000;0.000;2023-12-20T05:56:21;100839.53;;;20.84;34.68
78625;BME280;67944;0.000;0.000;2023-12-20T05:58:47;100840.66;;;20.90;34.25
78625;BME280;67944;0.000;0.000;2023-12-20T06:01:14;100848.09;;;20.95;34.42
78625;BME280;67944;0.000;0.000;2023-12-20T06:03:43;100846.53;;;21.00;33.95
78625;BME280;67944;0.000;0.000;2023-12-20T06:06:09;100850.34;;;21.06;34.38
78625;BME280;67944;0.000;0.000;2023-12-20T06:08:34;100863.88;;;21.11;34.09
78625;BME280;67944;0.000;0.000;2023-12-20T06:11:00;100872.13;;;21.16;34.02
78625;BME280;67944;0.000;0.000;2023-12-20T06:13:25;100861.19;;;21.19;34.12
78625;BME280;67944;0.000;0.000;2023-12-20T06:15:51;100857.03;;;21.25;34.13
78625;BME280;67944;0.000;0.000;2023-12-20T06:18:17;100861.81;;;21.29;33.87
78625;BME280;67944;0.000;0.000;2023-12-20T06:20:42;100852.53;;;21.33;33.81
78625;BME280;67944;0.000;0.000;2023-12-20T06:23:08;100863.78;;;21.35;33.86
78625;BME280;67944;0.000;0.000;2023-12-20T06:25:33;100856.31;;;21.39;33.74
78625;BME280;67944;0.000;0.000;2023-12-20T06:27:59;100852.31;;;21.43;33.86
78625;BME280;67944;0.000;0.000;2023-12-20T06:30:24;100851.09;;;21.45;34.16
78625;BME280;67944;0.000;0.000;2023-12-20T06:32:50;100855.06;;;21.49;33.66
78625;BME280;67944;0.000;0.000;2023-12-20T06:35:16;100855.53;;;21.53;33.50
78625;BME280;67944;0.000;0.000;2023-12-20T06:37:41;100862.31;;;21.55;33.61
78625;BME280;67944;0.000;0.000;2023-12-20T06:40:10;100858.31;;;21.60;33.86
78625;BME280;67944;0.000;0.000;2023-12-20T06:42:36;100850.84;;;21.63;33.69
78625;BME280;67944;0.000;0.000;2023-12-20T06:45:01;100861.06;;;21.66;33.78
78625;BME280;67944;0.000;0.000;2023-12-20T06:47:27;100864.19;;;21.70;33.56
78625;BME280;67944;0.000;0.000;2023-12-20T06:49:53;100864.66;;;21.73;33.42
78625;BME280;67944;0.000;0.000;2023-12-20T06:52:18;100871.44;;;21.76;33.33
78625;BME280;67944;0.000;0.000;2023-12-20T06:54:43;100871.09;;;21.79;33.63
78625;BME280;67944;0.000;0.000;2023-12-20T06:57:09;100870.72;;;21.82;33.44
78625;BME280;67944;0.000;0.000;2023-12-20T06:59:41;100866.09;;;21.84;33.29
78625;BME280;67944;0.000;0.000;2023-12-20T07:02:08;100854.09;;;21.88;33.52
78625;BME280;67944;0.000;0.000;2023-12-20T07:04:33;100866.16;;;21.90;33.41
78625;BME280;67944;0.000;0.000;2023-12-20T07:06:59;100872.78;;;21.95;33.24
78625;BME280;67944;0.000;0.000;2023-12-20T07:09:26;100881.38;;;21.97;33.25
78625;BME280;67944;0.000;0.000;2023-12-20T07:11:52;100879.38;;;21.99;33.18
78625;BME280;67944;0.000;0.000;2023-12-20T07:14:17;100880.88;;;22.01;33.19
78625;BME280;67944;0.000;0.000;2023-12-20T07:16:42;100876.03;;;22.05;33.61
78625;BME280;67944;0.000;0.000;2023-12-20T07:19:08;100862.41;;;22.08;33.12
78625;BME280;67944;0.000;0.000;2023-12-20T07:21:33;100870.16;;;22.09;33.28
78625;BME280;67944;0.000;0.000;2023-12-20T07:23:59;100875.94;;;22.13;33.19
78625;BME280;67944;0.000;0.000;2023-12-20T07:26:24;100880.06;;;22.15;32.97
78625;BME280;67944;0.000;0.000;2023-12-20T07:28:50;100880.72;;;22.17;33.29
78625;BME280;67944;0.000;0.000;2023-12-20T07:31:16;100883.84;;;22.21;33.02
78625;BME280;67944;0.000;0.000;2023-12-20T07:33:41;100891.63;;;22.22;33.32
78625;BME280;67944;0.000;0.000;2023-12-20T07:36:07;100890.44;;;22.25;33.22
78625;BME280;67944;0.000;0.000;2023-12-20T07:38:33;100891.91;;;22.28;32.98
78625;BME280;67944;0.000;0.000;2023-12-20T07:40:59;100899.47;;;22.31;33.05
78625;BME280;67944;0.000;0.000;2023-12-20T07:43:24;100902.78;;;22.33;33.03
78625;BME280;67944;0.000;0.000;2023-12-20T07:45:50;100900.78;;;22.35;33.06
78625;BME280;67944;0.000;0.000;2023-12-20T07:48:15;100906.38;;;22.40;32.73
78625;BME280;67944;0.000;0.000;2023-12-20T07:50:41;100903.34;;;22.43;33.12
78625;BME280;67944;0.000;0.000;2023-12-20T07:53:07;100910.13;;;22.45;32.70
78625;BME280;67944;0.000;0.000;2023-12-20T07:55:33;100906.47;;;22.46;32.68
78625;BME280;67944;0.000;0.000;2023-12-20T07:57:59;100907.78;;;22.50;32.88
78625;BME280;67944;0.000;0.000;2023-12-20T08:00:24;100917.81;;;22.55;32.68
78625;BME280;67944;0.000;0.000;2023-12-20T08:02:50;100911.31;;;22.57;32.91
78625;BME280;67944;0.000;0.000;2023-12-20T08:05:15;100901.34;;;22.60;32.99
78625;BME280;67944;0.000;0.000;2023-12-20T08:07:41;100906.13;;;22.64;32.50
78625;BME280;67944;0.000;0.000;2023-12-20T08:10:06;100914.72;;;22.66;32.55
78625;BME280;67944;0.000;0.000;2023-12-20T08:12:32;100912.72;;;22.68;32.55
78625;BME280;67944;0.000;0.000;2023-12-20T08:14:59;100906.03;;;22.72;32.30
78625;BME280;67944;0.000;0.000;2023-12-20T08:17:24;100903.38;;;22.72;32.36
78625;BME280;67944;0.000;0.000;2023-12-20T08:22:15;100905.41;;;22.70;32.44
78625;BME280;67944;0.000;0.000;2023-12-20T08:24:40;100905.41;;;22.70;32.28
78625;BME280;67944;0.000;0.000;2023-12-20T08:27:06;100905.41;;;22.70;32.18
78625;BME280;67944;0.000;0.000;2023-12-20T08:29:31;100907.03;;;22.71;32.37
78625;BME280;67944;0.000;0.000;2023-12-20T08:31:57;100912.34;;;22.71;32.40
78625;BME280;67944;0.000;0.000;2023-12-20T08:34:23;100912.34;;;22.71;32.14
78625;BME280;67944;0.000;0.000;2023-12-20T08:36:51;100910.34;;;22.73;32.38
78625;BME280;67944;0.000;0.000;2023-12-20T08:39:17;100922.59;;;22.74;32.47
78625;BME280;67944;0.000;0.000;2023-12-20T08:41:43;100924.22;;;22.75;32.32
78625;BME280;67944;0.000;0.000;2023-12-20T08:44:09;100927.56;;;22.77;32.53
78625;BME280;67944;0.000;0.000;2023-12-20T08:46:34;100927.72;;;22.76;32.26
78625;BME280;67944;0.000;0.000;2023-12-20T08:49:00;100939.91;;;22.70;32.03
78625;BME280;67944;0.000;0.000;2023-12-20T08:51:26;100939.28;;;22.68;32.19
78625;BME280;67944;0.000;0.000;2023-12-20T08:53:52;100925.00;;;22.69;31.90
78625;BME280;67944;0.000;0.000;2023-12-20T08:56:17;100921.75;;;22.74;31.82
78625;BME280;67944;0.000;0.000;2023-12-20T08:58:44;100924.06;;;22.77;32.09
78625;BME280;67944;0.000;0.000;2023-12-20T09:01:09;100937.00;;;22.80;31.68
78625;BME280;67944;0.000;0.000;2023-12-20T09:03:35;100936.63;;;22.83;32.18
78625;BME280;67944;0.000;0.000;2023-12-20T09:06:00;100935.44;;;22.85;32.14
78625;BME280;67944;0.000;0.000;2023-12-20T09:08:26;100939.41;;;22.89;31.76
78625;BME280;67944;0.000;0.000;2023-12-20T09:10:51;100942.50;;;22.93;31.81
78625;BME280;67944;0.000;0.000;2023-12-20T09:13:17;100940.28;;;22.97;32.22
78625;BME280;67944;0.000;0.000;2023-12-20T09:15:42;100932.13;;;22.98;31.88
78625;BME280;67944;0.000;0.000;2023-12-20T09:18:08;100933.59;;;23.01;31.81
78625;BME280;67944;0.000;0.000;2023-12-20T09:20:34;100943.88;;;23.04;31.71
78625;BME280;67944;0.000;0.000;2023-12-20T09:22:59;100941.47;;;23.09;32.24
78625;BME280;67944;0.000;0.000;2023-12-20T09:25:25;100932.13;;;23.13;31.92
78625;BME280;67944;0.000;0.000;2023-12-20T09:27:52;100938.72;;;23.17;32.33
78625;BME280;67944;0.000;0.000;2023-12-20T09:30:18;100937.50;;;23.19;31.88
78625;BME280;67944;0.000;0.000;2023-12-20T09:32:43;100940.81;;;23.21;31.99
78625;BME280;67944;0.000;0.000;2023-12-20T09:35:09;100948.78;;;23.21;31.83
78625;BME280;67944;0.000;0.000;2023-12-20T09:37:34;100952.91;;;23.24;32.01
78625;BME280;67944;0.000;0.000;2023-12-20T09:40:00;100951.91;;;23.25;31.34
78625;BME280;67944;0.000;0.000;2023-12-20T09:42:46;100945.56;;;23.26;31.68
78625;BME280;67944;0.000;0.000;2023-12-20T09:45:15;100947.03;;;23.29;31.57
78625;BME280;67944;0.000;0.000;2023-12-20T09:47:43;100938.06;;;23.30;31.86
78625;BME280;67944;0.000;0.000;2023-12-20T09:50:09;100939.72;;;23.31;31.42
78625;BME280;67944;0.000;0.000;2023-12-20T09:52:36;100943.84;;;23.33;31.76
78625;BME280;67944;0.000;0.000;2023-12-20T09:55:04;100949.97;;;23.34;31.41
78625;BME280;67944;0.000;0.000;2023-12-20T09:57:33;100949.78;;;23.35;32.01
78625;BME280;67944;0.000;0.000;2023-12-20T09:59:59;100953.09;;;23.37;32.04
78625;BME280;67944;0.000;0.000;2023-12-20T10:02:25;100950.22;;;23.39;31.49
78625;BME280;67944;0.000;0.000;2023-12-20T10:04:55;100945.72;;;23.39;31.95
78625;BME280;67944;0.000;0.000;2023-12-20T10:07:21;100950.47;;;23.44;31.91
78625;BME280;67944;0.000;0.000;2023-12-20T10:09:47;100952.13;;;23.45;31.42
78625;BME280;67944;0.000;0.000;2023-12-20T10:12:13;100942.97;;;23.47;31.41
78625;BME280;67944;0.000;0.000;2023-12-20T10:14:39;100941.97;;;23.48;31.46
78625;BME280;67944;0.000;0.000;2023-12-20T10:17:05;100941.13;;;23.48;31.82
78625;BME280;67944;0.000;0.000;2023-12-20T10:19:32;100935.00;;;23.47;31.75
78625;BME280;67944;0.000;0.000;2023-12-20T10:22:04;100933.34;;;23.46;31.67
78625;BME280;67944;0.000;0.000;2023-12-20T10:24:30;100942.31;;;23.45;31.98
78625;BME280;67944;0.000;0.000;2023-12-20T10:27:05;100940.69;;;23.44;31.05
78625;BME280;67944;0.000;0.000;2023-12-20T10:29:35;100932.69;;;23.44;31.57
78625;BME280;67944;0.000;0.000;2023-12-20T10:32:36;100940.84;;;23.43;32.12
78625;BME280;67944;0.000;0.000;2023-12-20T10:35:01;100924.28;;;23.41;31.88
78625;BME280;67944;0.000;0.000;2023-12-20T10:37:27;100916.31;;;23.41;31.17
78625;BME280;67944;0.000;0.000;2023-12-20T10:39:54;100918.31;;;23.39;31.88
78625;BME280;67944;0.000;0.000;2023-12-20T10:42:25;100920.19;;;23.38;31.42
78625;BME280;67944;0.000;0.000;2023-12-20T10:44:51;100920.97;;;23.39;31.68
78625;BME280;67944;0.000;0.000;2023-12-20T10:47:19;100923.84;;;23.37;31.74
78625;BME280;67944;0.000;0.000;2023-12-20T10:49:46;100923.84;;;23.37;31.42
78625;BME280;67944;0.000;0.000;2023-12-20T10:52:12;100915.88;;;23.37;31.38
78625;BME280;67944;0.000;0.000;2023-12-20T10:54:39;100917.53;;;23.38;31.41
78625;BME280;67944;0.000;0.000;2023-12-20T10:57:06;100911.38;;;23.38;32.02
78625;BME280;67944;0.000;0.000;2023-12-20T10:59:37;100913.00;;;23.39;31.94
78625;BME280;67944;0.000;0.000;2023-12-20T11:02:04;100909.34;;;23.40;31.69
78625;BME280;67944;0.000;0.000;2023-12-20T11:04:59;100907.50;;;23.40;31.95
78625;BME280;67944;0.000;0.000;2023-12-20T11:07:48;100894.22;;;23.40;31.67
78625;BME280;67944;0.000;0.000;2023-12-20T11:10:20;100893.59;;;23.38;31.32
78625;BME280;67944;0.000;0.000;2023-12-20T11:12:56;100893.38;;;23.40;31.99
78625;BME280;67944;0.000;0.000;2023-12-20T11:15:24;100894.22;;;23.40;31.79
78625;BME280;67944;0.000;0.000;2023-12-20T11:17:57;100886.22;;;23.40;31.63
78625;BME280;67944;0.000;0.000;2023-12-20T11:20:24;100878.06;;;23.42;31.46
78625;BME280;67944;0.000;0.000;2023-12-20T11:23:00;100885.88;;;23.43;31.43
78625;BME280;67944;0.000;0.000;2023-12-20T11:25:26;100891.00;;;23.45;31.33
78625;BME280;67944;0.000;0.000;2023-12-20T11:28:11;100885.31;;;23.48;32.13
78625;BME280;67944;0.000;0.000;2023-12-20T11:30:45;100871.00;;;23.49;31.58
78625;BME280;67944;0.000;0.000;2023-12-20T11:33:13;100877.78;;;23.51;31.25
78625;BME280;67944;0.000;0.000;2023-12-20T11:35:39;100881.94;;;23.54;31.79
78625;BME280;67944;0.000;0.000;2023-12-20T11:38:08;100888.91;;;23.55;31.71
78625;BME280;67944;0.000;0.000;2023-12-20T11:40:35;100886.88;;;23.57;31.75
78625;BME280;67944;0.000;0.000;2023-12-20T11:43:00;100886.69;;;23.58;31.76
78625;BME280;67944;0.000;0.000;2023-12-20T11:45:26;100886.47;;;23.60;30.85
78625;BME280;67944;0.000;0.000;2023-12-20T11:47:52;100888.13;;;23.61;30.83
78625;BME280;67944;0.000;0.000;2023-12-20T11:50:21;100881.59;;;23.64;31.53
78625;BME280;67944;0.000;0.000;2023-12-20T11:52:48;100887.56;;;23.66;30.95
78625;BME280;67944;0.000;0.000;2023-12-20T11:55:14;100881.66;;;23.70;31.63
78625;BME280;67944;0.000;0.000;2023-12-20T11:57:40;100874.31;;;23.72;31.31
78625;BME280;67944;0.000;0.000;2023-12-20T12:00:06;100872.31;;;23.74;31.41
78625;BME280;67944;0.000;0.000;2023-12-20T12:02:32;100881.75;;;23.77;31.43
78625;BME280;67944;0.000;0.000;2023-12-20T12:04:59;100887.88;;;23.77;30.96
78625;BME280;67944;0.000;0.000;2023-12-20T12:07:25;100886.03;;;23.78;31.01
78625;BME280;67944;0.000;0.000;2023-12-20T12:09:51;100884.03;;;23.80;31.31
78625;BME280;67944;0.000;0.000;2023-12-20T12:12:17;100881.38;;;23.80;31.02
78625;BME280;67944;0.000;0.000;2023-12-20T12:14:47;100886.50;;;23.81;30.93
78625;BME280;67944;0.000;0.000;2023-12-20T12:17:14;100889.94;;;23.82;30.93
78625;BME280;67944;0.000;0.000;2023-12-20T12:19:41;100873.97;;;23.82;30.93
78625;BME280;67944;0.000;0.000;2023-12-20T12:22:14;100875.63;;;23.83;30.85
78625;BME280;67944;0.000;0.000;2023-12-20T12:24:43;100869.72;;;23.81;30.61
78625;BME280;67944;0.000;0.000;2023-12-20T12:27:09;100874.31;;;23.72;30.07
78625;BME280;67944;0.000;0.000;2023-12-20T12:29:36;100864.63;;;23.65;30.80
78625;BME280;67944;0.000;0.000;2023-12-20T12:32:06;100870.31;;;23.62;30.59
78625;BME280;67944;0.000;0.000;2023-12-20T12:34:32;100867.25;;;23.58;30.68
78625;BME280;67944;0.000;0.000;2023-12-20T12:36:59;100870.72;;;23.58;30.67
78625;BME280;67944;0.000;0.000;2023-12-20T12:39:25;100869.09;;;23.57;30.50
78625;BME280;67944;0.000;0.000;2023-12-20T12:41:51;100868.91;;;23.59;31.12
78625;BME280;67944;0.000;0.000;2023-12-20T12:44:17;100868.06;;;23.58;30.83
78625;BME280;67944;0.000;0.000;2023-12-20T12:46:44;100867.84;;;23.60;30.41
78625;BME280;67944;0.000;0.000;2023-12-20T12:49:09;100867.06;;;23.60;30.52
78625;BME280;67944;0.000;0.000;2023-12-20T12:51:35;100871.56;;;23.59;30.64
78625;BME280;67944;0.000;0.000;2023-12-20T12:54:00;100859.28;;;23.58;31.00
78625;BME280;67944;0.000;0.000;2023-12-20T12:56:26;100860.84;;;23.52;29.92
78625;BME280;67944;0.000;0.000;2023-12-20T12:58:52;100844.72;;;23.39;30.21